Time;durP1;ratioP1;P1;durP2;ratioP2;P2;SDS_P1;SDS_P2;PMS_P1;PMS_P2;Temp;Humidity;BMP_temperature;BMP_pressure;BME280_temperature;BME280_humidity;BME280_pressure;Samples;Min_cycle;Max_cycle;Signal;HPM_P1;HPM_P2
2024/04/24 00:01:19;;;;;;;21.63;12.63;;;4.50;99.90;;;;;;5461048;26;20351;-74
2024/04/24 00:04:06;;;;;;;23.67;13.10;;;4.60;99.90;;;;;;5485993;26;20322;-74
2024/04/24 00:06:54;;;;;;;22.73;12.40;;;4.70;99.90;;;;;;5485614;26;20767;-75
2024/04/24 00:09:41;;;;;;;23.13;12.80;;;4.70;99.90;;;;;;5487516;26;20213;-75
2024/04/24 00:12:29;;;;;;;20.60;11.90;;;4.70;99.90;;;;;;5461072;26;20227;-75
2024/04/24 00:15:17;;;;;;;21.97;12.73;;;4.80;99.90;;;;;;5486617;26;20213;-75
2024/04/24 00:18:04;;;;;;;21.73;12.00;;;4.70;99.90;;;;;;5486757;26;20216;-75
2024/04/24 00:20:55;;;;;;;22.60;12.13;;;4.70;99.90;;;;;;5461025;26;20275;-77
2024/04/24 00:23:43;;;;;;;24.10;12.93;;;4.70;99.90;;;;;;5460893;26;20256;-74
2024/04/24 00:26:33;;;;;;;21.97;12.07;;;4.70;99.90;;;;;;5459762;26;20260;-74
2024/04/24 00:29:24;;;;;;;19.70;12.13;;;4.60;99.90;;;;;;5486219;26;20317;-75
2024/04/24 00:32:12;;;;;;;19.53;12.53;;;4.60;99.90;;;;;;5487020;26;20280;-75
2024/04/24 00:34:59;;;;;;;22.33;13.10;;;4.50;99.90;;;;;;5459976;26;20228;-75
2024/04/24 00:37:47;;;;;;;20.93;12.17;;;4.50;99.90;;;;;;5486222;26;20214;-75
2024/04/24 00:40:38;;;;;;;21.90;11.93;;;4.40;99.90;;;;;;5484856;26;20216;-75
2024/04/24 00:43:26;;;;;;;23.03;12.43;;;4.40;99.90;;;;;;5459646;26;20323;-75
2024/04/24 00:46:15;;;;;;;20.20;11.77;;;4.40;99.90;;;;;;5458573;26;20215;-75
2024/04/24 00:49:04;;;;;;;19.87;11.83;;;4.40;99.90;;;;;;5485784;26;20630;-76
2024/04/24 00:51:53;;;;;;;19.30;11.83;;;4.30;99.90;;;;;;5460380;26;20216;-76
2024/04/24 00:54:41;;;;;;;20.43;11.93;;;4.40;99.90;;;;;;5484764;26;20547;-75
2024/04/24 00:57:29;;;;;;;18.33;12.03;;;4.40;99.90;;;;;;5486688;26;20216;-76
2024/04/24 01:00:17;;;;;;;20.57;11.53;;;4.40;99.90;;;;;;5460094;26;20632;-76
2024/04/24 01:03:06;;;;;;;19.97;11.70;;;4.40;99.90;;;;;;5460060;26;20259;-76
2024/04/24 01:05:53;;;;;;;20.40;11.77;;;4.30;99.90;;;;;;5486603;26;20274;-75
2024/04/24 01:08:42;;;;;;;18.23;11.30;;;4.30;99.90;;;;;;5458393;26;20216;-76
2024/04/24 01:11:32;;;;;;;19.27;11.63;;;4.40;99.90;;;;;;5484604;26;20293;-75
2024/04/24 01:14:20;;;;;;;19.10;11.50;;;4.40;99.90;;;;;;5459931;26;20322;-76
2024/04/24 01:17:10;;;;;;;17.40;10.93;;;4.30;99.90;;;;;;5459901;26;20210;-75
2024/04/24 01:20:00;;;;;;;19.17;10.97;;;4.30;99.90;;;;;;5485243;26;20229;-75
2024/04/24 01:22:51;;;;;;;18.10;11.03;;;4.20;99.90;;;;;;5460169;26;20561;-75
2024/04/24 01:25:44;;;;;;;19.00;11.43;;;4.20;99.90;;;;;;5461851;26;20302;-76
2024/04/24 01:28:32;;;;;;;21.13;12.00;;;4.30;99.90;;;;;;5487557;26;20228;-76
2024/04/24 01:31:19;;;;;;;17.13;10.67;;;4.20;99.90;;;;;;5488461;26;20214;-75
2024/04/24 01:34:07;;;;;;;22.30;11.93;;;4.10;99.90;;;;;;5488595;26;20327;-74
2024/04/24 01:36:55;;;;;;;19.50;11.63;;;4.10;99.90;;;;;;5487443;26;20218;-75
2024/04/24 01:39:42;;;;;;;20.53;12.40;;;4.10;99.90;;;;;;5463097;26;20218;-76
2024/04/24 01:42:31;;;;;;;18.30;11.03;;;4.20;99.90;;;;;;5487504;26;20320;-76
2024/04/24 01:45:19;;;;;;;22.47;11.23;;;4.20;99.90;;;;;;5489609;26;20236;-75
2024/04/24 01:48:07;;;;;;;20.57;11.23;;;4.20;99.90;;;;;;5487225;26;20322;-75
2024/04/24 01:50:54;;;;;;;19.17;11.40;;;4.20;99.90;;;;;;5487401;26;20271;-75
2024/04/24 01:53:41;;;;;;;20.67;12.43;;;4.20;99.90;;;;;;5488142;26;20264;-75
2024/04/24 01:56:29;;;;;;;18.73;11.33;;;4.20;99.90;;;;;;5438049;26;20212;-75
2024/04/24 01:59:16;;;;;;;18.80;11.83;;;4.10;99.90;;;;;;5487172;26;20366;-75
2024/04/24 02:02:04;;;;;;;18.63;11.20;;;4.10;99.90;;;;;;5487333;26;20214;-75
2024/04/24 02:04:52;;;;;;;18.80;11.33;;;4.00;99.90;;;;;;5486985;26;20273;-75
2024/04/24 02:07:39;;;;;;;18.20;11.00;;;4.00;99.90;;;;;;5463072;26;20258;-74
2024/04/24 02:10:27;;;;;;;18.97;11.10;;;4.00;99.90;;;;;;5487044;26;20746;-75
2024/04/24 02:13:14;;;;;;;18.97;10.70;;;4.00;99.90;;;;;;5462136;26;20260;-74
2024/04/24 02:16:02;;;;;;;17.23;10.57;;;4.10;99.90;;;;;;5488369;26;20215;-74
2024/04/24 02:18:50;;;;;;;17.47;10.57;;;4.10;99.90;;;;;;5436125;26;20766;-75
2024/04/24 02:21:37;;;;;;;19.87;10.97;;;4.20;99.90;;;;;;5462883;26;20608;-75
2024/04/24 02:27:31;;;;;;;19.67;11.23;;;4.00;99.90;;;;;;5487051;26;20278;-76
2024/04/24 02:30:18;;;;;;;16.43;10.63;;;4.00;99.90;;;;;;5488255;26;20556;-75
2024/04/24 02:33:06;;;;;;;17.57;11.10;;;4.00;99.90;;;;;;5487767;26;20304;-75
2024/04/24 02:35:53;;;;;;;21.20;11.33;;;4.00;99.90;;;;;;5462396;26;20594;-75
2024/04/24 02:38:41;;;;;;;18.13;10.53;;;4.00;99.90;;;;;;5486830;26;20215;-75
2024/04/24 02:41:28;;;;;;;17.37;10.07;;;4.00;99.90;;;;;;5486470;26;20261;-74
2024/04/24 02:44:16;;;;;;;16.93;10.67;;;4.20;99.90;;;;;;5488007;26;20227;-75
2024/04/24 02:47:04;;;;;;;18.67;10.43;;;3.90;99.90;;;;;;5487824;26;20212;-75
2024/04/24 02:49:53;;;;;;;20.23;10.77;;;3.90;99.90;;;;;;5461541;26;20281;-74
2024/04/24 02:52:41;;;;;;;17.10;10.57;;;4.00;99.90;;;;;;5488664;26;20209;-75
2024/04/24 02:55:29;;;;;;;18.03;10.73;;;4.00;99.90;;;;;;5461167;26;20294;-75
2024/04/24 02:58:16;;;;;;;18.30;10.77;;;4.00;99.90;;;;;;5486942;26;20215;-75
2024/04/24 03:01:11;;;;;;;20.63;11.07;;;4.00;99.90;;;;;;5460881;26;20694;-75
2024/04/24 03:03:58;;;;;;;21.73;11.20;;;4.00;99.90;;;;;;5487777;26;20277;-75
2024/04/24 03:06:46;;;;;;;16.97;10.83;;;4.00;99.90;;;;;;5486484;26;20324;-76
2024/04/24 03:09:34;;;;;;;16.40;10.50;;;4.00;99.90;;;;;;5488680;26;20276;-74
2024/04/24 03:12:23;;;;;;;18.73;10.23;;;4.10;99.90;;;;;;5486646;26;20690;-75
2024/04/24 03:15:10;;;;;;;16.83;10.57;;;4.10;99.90;;;;;;5462972;26;20216;-75
2024/04/24 03:17:57;;;;;;;17.00;10.20;;;4.30;99.90;;;;;;5486681;26;20276;-75
2024/04/24 03:20:45;;;;;;;18.67;10.43;;;4.20;99.90;;;;;;5486145;26;20227;-76
2024/04/24 03:23:32;;;;;;;16.37;10.40;;;4.10;99.90;;;;;;5486633;26;20221;-77
2024/04/24 03:26:20;;;;;;;16.83;9.77;;;4.30;99.90;;;;;;5459788;26;20316;-76
2024/04/24 03:29:07;;;;;;;17.10;10.57;;;4.10;99.90;;;;;;5485939;26;20211;-76
2024/04/24 03:31:55;;;;;;;21.63;10.93;;;4.10;99.90;;;;;;5461709;26;20597;-76
2024/04/24 03:34:42;;;;;;;17.40;10.40;;;4.30;99.90;;;;;;5485892;26;20283;-76
2024/04/24 03:37:30;;;;;;;18.93;10.30;;;4.20;99.90;;;;;;5460716;26;20219;-76
2024/04/24 03:40:18;;;;;;;16.53;10.23;;;4.20;99.90;;;;;;5486363;26;20325;-76
2024/04/24 03:43:30;;;;;;;16.23;10.07;;;4.20;99.90;;;;;;5460606;26;20705;-76
2024/04/24 03:47:14;;;;;;;15.73;9.80;;;4.20;99.90;;;;;;5487992;26;20684;-76
2024/04/24 03:53:46;;;;;;;16.60;9.83;;;4.30;99.90;;;;;;5485275;26;20321;-76
2024/04/24 03:56:33;;;;;;;16.60;10.20;;;4.30;99.90;;;;;;5458701;26;20215;-76
2024/04/24 03:59:21;;;;;;;17.70;9.83;;;4.20;99.90;;;;;;5485441;26;20584;-77
2024/04/24 04:02:08;;;;;;;19.00;10.53;;;4.30;99.90;;;;;;5485412;26;20215;-75
2024/04/24 04:04:56;;;;;;;15.47;9.60;;;4.30;99.90;;;;;;5485755;26;20226;-75
2024/04/24 04:07:43;;;;;;;17.13;9.90;;;4.40;99.90;;;;;;5485972;26;20216;-76
2024/04/24 04:10:31;;;;;;;18.47;9.73;;;4.30;99.90;;;;;;5484401;26;20319;-76
2024/04/24 04:13:18;;;;;;;17.63;10.30;;;4.40;99.90;;;;;;5486715;26;20222;-76
2024/04/24 04:16:06;;;;;;;17.97;9.97;;;4.40;99.90;;;;;;5486313;26;20691;-75
2024/04/24 04:18:54;;;;;;;17.70;9.80;;;4.30;99.90;;;;;;5457413;26;20215;-75
2024/04/24 04:21:41;;;;;;;16.83;9.83;;;4.40;99.90;;;;;;5486674;26;20224;-75
2024/04/24 04:24:29;;;;;;;14.27;9.67;;;4.30;99.90;;;;;;5460050;26;20739;-75
2024/04/24 04:27:17;;;;;;;16.43;10.17;;;4.30;99.90;;;;;;5486046;26;20243;-77
2024/04/24 04:30:05;;;;;;;18.30;10.03;;;4.30;99.90;;;;;;5485352;26;20261;-74
2024/04/24 04:32:52;;;;;;;16.53;9.63;;;4.30;99.90;;;;;;5460711;26;20225;-74
2024/04/24 04:35:40;;;;;;;19.23;10.73;;;4.30;99.90;;;;;;5459676;26;20227;-75
2024/04/24 04:38:27;;;;;;;15.77;9.70;;;4.40;99.90;;;;;;5485450;26;20315;-75
2024/04/24 04:41:15;;;;;;;15.67;10.00;;;4.40;99.90;;;;;;5486024;26;20631;-75
2024/04/24 04:44:03;;;;;;;16.27;10.43;;;4.40;99.90;;;;;;5484834;26;20257;-75
2024/04/24 04:46:51;;;;;;;17.93;10.07;;;4.30;99.90;;;;;;5459845;26;20225;-75
2024/04/24 04:49:38;;;;;;;18.93;10.17;;;4.40;99.90;;;;;;5485212;26;20237;-75
2024/04/24 04:52:26;;;;;;;16.30;9.80;;;4.40;99.90;;;;;;5460160;26;20208;-75
2024/04/24 04:55:14;;;;;;;16.40;9.87;;;4.40;99.90;;;;;;5485730;26;20223;-74
2024/04/24 04:58:01;;;;;;;18.30;9.53;;;4.30;99.90;;;;;;5458694;26;20217;-75
2024/04/24 05:01:23;;;;;;;18.90;10.30;;;4.30;99.90;;;;;;5486671;26;20739;-74
2024/04/24 05:08:21;;;;;;;15.20;9.23;;;4.40;99.90;;;;;;5487550;26;20212;-75
2024/04/24 05:12:22;;;;;;;16.10;9.67;;;4.50;99.90;;;;;;5491743;26;20260;-75
2024/04/24 05:34:33;;;;;;;16.10;9.70;;;4.60;99.90;;;;;;5486431;26;20228;-75
2024/04/24 05:37:58;;;;;;;18.20;9.67;;;4.70;99.90;;;;;;5487762;26;20214;-75
2024/04/24 05:41:26;;;;;;;16.37;9.50;;;4.80;99.90;;;;;;5463243;26;20211;-75
2024/04/24 05:49:06;;;;;;;16.00;9.53;;;5.00;99.90;;;;;;5491147;26;20808;-75
2024/04/24 05:52:15;;;;;;;16.93;10.17;;;5.00;99.90;;;;;;5487515;26;20736;-75
2024/04/24 05:55:02;;;;;;;15.50;8.87;;;5.00;99.90;;;;;;5488451;26;20267;-75
2024/04/24 05:57:50;;;;;;;16.10;9.50;;;5.00;99.90;;;;;;5487066;26;20276;-75
2024/04/24 06:00:37;;;;;;;20.47;9.90;;;5.00;99.90;;;;;;5487466;26;20597;-75
2024/04/24 06:15:43;;;;;;;17.63;9.77;;;5.20;99.90;;;;;;5490652;26;20282;-75
2024/04/24 06:27:01;;;;;;;16.70;9.33;;;5.30;99.90;;;;;;5491315;26;20262;-75
2024/04/24 06:30:18;;;;;;;17.60;10.20;;;5.40;99.90;;;;;;5471169;26;20329;-75
2024/04/24 06:33:45;;;;;;;19.07;10.13;;;5.50;99.90;;;;;;5450536;26;20238;-75
2024/04/24 06:37:10;;;;;;;20.10;10.37;;;5.60;99.90;;;;;;5486969;26;20246;-75
2024/04/24 06:40:36;;;;;;;17.90;9.77;;;5.60;99.90;;;;;;5488898;26;20475;-75
2024/04/24 06:51:27;;;;;;;19.33;9.77;;;5.60;99.90;;;;;;5487944;26;20266;-75
2024/04/24 06:55:17;;;;;;;20.70;10.00;;;5.90;99.90;;;;;;5489827;26;20255;-74
2024/04/24 06:58:47;;;;;;;16.43;8.87;;;6.00;99.90;;;;;;5462608;26;20221;-75
2024/04/24 07:13:58;;;;;;;19.10;10.13;;;6.30;99.90;;;;;;5485536;26;20214;-75
2024/04/24 07:17:51;;;;;;;16.00;9.17;;;6.40;99.90;;;;;;5489878;26;20258;-75
2024/04/24 07:21:40;;;;;;;17.03;9.70;;;6.40;99.90;;;;;;5468048;26;20230;-75
2024/04/24 07:25:14;;;;;;;16.83;10.13;;;6.60;99.90;;;;;;5485190;26;20250;-75
2024/04/24 07:29:03;;;;;;;17.23;9.57;;;6.90;99.90;;;;;;5489369;26;20264;-75
2024/04/24 07:32:40;;;;;;;14.80;9.63;;;6.90;99.90;;;;;;5486363;26;20321;-75
2024/04/24 07:35:57;;;;;;;18.77;9.90;;;7.00;99.90;;;;;;5450795;26;20251;-75
2024/04/24 07:50:31;;;;;;;15.07;9.13;;;8.10;99.90;;;;;;5452399;26;20758;-75
2024/04/24 07:53:56;;;;;;;16.40;9.57;;;8.30;99.90;;;;;;5450307;26;20207;-75
2024/04/24 07:57:21;;;;;;;25.27;10.37;;;8.30;99.90;;;;;;5425289;26;20293;-76
2024/04/24 08:00:52;;;;;;;13.53;8.60;;;8.30;99.90;;;;;;5448797;26;20261;-75
2024/04/24 08:08:16;;;;;;;16.50;9.40;;;8.80;99.90;;;;;;5453108;26;20597;-75
2024/04/24 08:15:54;;;;;;;16.83;9.13;;;9.00;99.90;;;;;;5452119;26;20795;-75
2024/04/24 08:19:22;;;;;;;16.53;9.03;;;9.30;99.90;;;;;;5450853;26;20320;-75
2024/04/24 08:23:02;;;;;;;14.80;8.70;;;9.60;99.90;;;;;;5426601;26;20219;-75
2024/04/24 08:30:14;;;;;;;15.77;8.87;;;10.10;99.90;;;;;;5450961;26;20287;-75
2024/04/24 08:33:51;;;;;;;16.53;9.40;;;10.20;99.90;;;;;;5449423;26;20219;-75
2024/04/24 08:45:31;;;;;;;15.30;8.70;;;9.90;99.90;;;;;;5450714;26;20211;-76
2024/04/24 08:48:56;;;;;;;12.80;8.70;;;9.90;99.90;;;;;;5423297;26;20339;-75
2024/04/24 08:52:45;;;;;;;12.17;8.00;;;9.80;99.90;;;;;;5431962;26;20215;-75
2024/04/24 08:56:17;;;;;;;13.30;8.10;;;9.90;99.90;;;;;;5424742;26;20207;-75
2024/04/24 09:07:14;;;;;;;13.70;8.40;;;9.70;99.90;;;;;;5449048;26;20210;-75
2024/04/24 09:11:03;;;;;;;14.10;8.80;;;9.70;99.90;;;;;;5432080;26;20211;-75
2024/04/24 09:15:07;;;;;;;13.77;8.20;;;9.80;99.90;;;;;;5432150;26;20321;-75
2024/04/24 09:18:41;;;;;;;12.63;7.87;;;9.70;99.90;;;;;;5447939;26;20215;-75
2024/04/24 09:22:34;;;;;;;12.43;8.40;;;9.60;99.90;;;;;;5450172;26;20219;-75
2024/04/24 09:25:58;;;;;;;13.50;8.70;;;9.40;99.90;;;;;;5449890;26;20216;-75
2024/04/24 09:46:08;;;;;;;13.47;8.73;;;9.20;99.90;;;;;;5453122;26;20207;-75
2024/04/24 09:49:57;;;;;;;14.27;9.23;;;9.20;99.90;;;;;;5451582;26;20224;-75
2024/04/24 09:53:22;;;;;;;13.07;9.00;;;9.30;99.90;;;;;;5451659;26;20211;-75
2024/04/24 09:56:47;;;;;;;13.30;8.77;;;9.50;99.90;;;;;;5450999;26;20211;-75
2024/04/24 10:00:12;;;;;;;16.10;9.33;;;9.70;99.90;;;;;;5451699;26;20258;-75
2024/04/24 10:03:47;;;;;;;14.43;8.60;;;9.80;99.90;;;;;;5452746;26;20560;-75
2024/04/24 10:07:29;;;;;;;14.13;8.57;;;9.80;99.90;;;;;;5452084;26;20602;-75
2024/04/24 10:22:44;;;;;;;13.87;9.07;;;8.90;99.90;;;;;;5451632;26;20344;-75
2024/04/24 10:26:09;;;;;;;13.63;9.07;;;8.90;99.90;;;;;;5449776;26;20637;-75
2024/04/24 10:29:58;;;;;;;14.67;9.30;;;8.90;99.90;;;;;;5434231;26;20262;-75
2024/04/24 10:41:38;;;;;;;11.37;7.60;;;8.60;99.90;;;;;;5454380;26;20218;-75
2024/04/24 10:57:41;;;;;;;13.03;8.70;;;8.70;99.90;;;;;;5453798;26;20212;-75
2024/04/24 11:00:50;;;;;;;16.57;9.17;;;8.70;99.90;;;;;;5452007;26;20219;-75
2024/04/24 11:08:34;;;;;;;13.50;9.27;;;9.00;99.90;;;;;;5452869;26;20223;-75
2024/04/24 11:11:59;;;;;;;17.70;9.50;;;9.00;99.90;;;;;;5448577;26;20215;-76
2024/04/24 11:27:04;;;;;;;14.03;8.90;;;9.00;99.90;;;;;;5452381;26;20691;-75
2024/04/24 11:30:36;;;;;;;14.07;8.50;;;8.90;99.90;;;;;;5451589;26;20271;-75
2024/04/24 11:37:50;;;;;;;13.43;9.00;;;9.10;99.90;;;;;;5449120;26;20583;-75
2024/04/24 11:41:14;;;;;;;14.90;10.00;;;9.10;99.90;;;;;;5415717;26;20224;-75
2024/04/24 12:03:25;;;;;;;16.40;10.03;;;9.10;99.90;;;;;;5416472;26;20655;-75
2024/04/24 12:14:41;;;;;;;14.07;9.40;;;9.00;99.90;;;;;;5415678;26;20329;-75
2024/04/24 12:22:34;;;;;;;14.63;9.80;;;9.10;99.90;;;;;;5412885;26;20325;-75
2024/04/24 12:25:59;;;;;;;15.57;9.80;;;8.90;99.90;;;;;;5415039;26;20283;-75
2024/04/24 12:29:24;;;;;;;16.40;10.07;;;8.70;99.90;;;;;;5413011;26;20323;-75
2024/04/24 12:32:49;;;;;;;15.77;9.90;;;8.70;99.90;;;;;;5387860;26;20681;-75
2024/04/24 12:36:17;;;;;;;16.80;9.87;;;8.70;99.90;;;;;;5415547;26;20695;-75
2024/04/24 12:39:51;;;;;;;13.50;9.33;;;8.80;99.90;;;;;;5439217;26;20352;-75
2024/04/24 12:50:52;;;;;;;15.30;9.97;;;8.70;99.90;;;;;;5449293;26;20703;-75
2024/04/24 12:54:17;;;;;;;15.23;9.80;;;8.70;99.90;;;;;;5451025;26;20300;-75
2024/04/24 12:57:42;;;;;;;16.20;10.03;;;8.80;99.90;;;;;;5449551;26;20265;-75
2024/04/24 13:01:13;;;;;;;14.07;9.30;;;9.10;99.90;;;;;;5425340;26;20274;-76
2024/04/24 13:04:56;;;;;;;14.33;8.80;;;9.00;99.90;;;;;;5448726;26;20215;-75
2024/04/24 13:12:04;;;;;;;13.20;9.00;;;8.90;99.90;;;;;;5447466;26;20271;-75
2024/04/24 13:15:30;;;;;;;12.30;8.83;;;9.00;99.90;;;;;;5449288;26;20215;-75
2024/04/24 13:22:14;;;;;;;15.83;8.80;;;8.80;99.90;;;;;;5451141;26;20553;-75
2024/04/24 13:25:39;;;;;;;13.13;8.93;;;8.70;99.90;;;;;;5453445;26;20319;-75
2024/04/24 13:29:14;;;;;;;17.23;10.07;;;8.80;99.90;;;;;;5453408;26;20750;-75
2024/04/24 13:32:41;;;;;;;16.30;10.03;;;8.70;99.90;;;;;;5428788;26;20273;-75
2024/04/24 13:48:20;;;;;;;12.57;8.50;;;8.60;99.90;;;;;;5454734;26;20258;-76
2024/04/24 14:23:37;;;;;;;13.30;8.53;;;8.70;99.90;;;;;;5454969;26;20328;-80
2024/04/24 14:34:05;;;;;;;13.63;8.73;;;8.70;99.90;;;;;;5453345;26;20692;-84
2024/04/24 14:37:26;;;;;;;15.43;9.47;;;8.90;99.90;;;;;;5451318;26;20219;-81
2024/04/24 14:47:54;;;;;;;13.73;8.87;;;9.10;99.90;;;;;;5452480;26;20211;-77
2024/04/24 14:51:20;;;;;;;14.63;10.45;;;9.30;99.90;;;;;;5452314;26;20711;-78
2024/04/24 14:54:33;;;;;;;13.47;9.13;;;9.30;99.90;;;;;;5434808;26;20296;-78
2024/04/24 14:57:36;;;;;;;17.23;9.57;;;9.30;99.90;;;;;;5451382;26;20216;-79
2024/04/24 15:00:25;;;;;;;14.17;9.53;;;9.20;99.90;;;;;;5426963;26;20211;-79
2024/04/24 15:03:12;;;;;;;13.93;9.47;;;9.20;99.90;;;;;;5452413;26;20670;-80
2024/04/24 15:06:03;;;;;;;13.03;9.03;;;9.40;99.90;;;;;;5427138;26;20227;-80
2024/04/24 15:08:51;;;;;;;12.87;9.30;;;9.30;99.90;;;;;;5426974;26;20247;-80
2024/04/24 15:11:41;;;;;;;15.03;9.70;;;9.40;99.90;;;;;;5425048;26;20320;-78
2024/04/24 15:14:29;;;;;;;13.83;9.57;;;9.30;99.90;;;;;;5449742;26;20215;-78
2024/04/24 15:17:17;;;;;;;14.10;9.17;;;9.50;99.90;;;;;;5427967;26;20741;-79
2024/04/24 15:20:14;;;;;;;12.83;9.30;;;9.40;99.90;;;;;;5450971;26;20227;-79
2024/04/24 15:23:01;;;;;;;12.37;9.00;;;9.40;99.90;;;;;;5425491;26;20293;-79
2024/04/24 15:26:15;;;;;;;12.47;9.07;;;9.20;99.90;;;;;;5451030;26;20215;-79
2024/04/24 15:29:05;;;;;;;13.17;8.30;;;9.30;99.90;;;;;;5449930;26;20215;-80
2024/04/24 15:32:12;;;;;;;11.80;8.33;;;9.30;99.90;;;;;;5451660;26;20215;-79
2024/04/24 15:35:00;;;;;;;11.53;8.20;;;9.40;99.90;;;;;;5450300;26;20239;-78
2024/04/24 15:37:50;;;;;;;11.20;8.17;;;9.50;99.90;;;;;;5451916;26;20568;-76
2024/04/24 15:40:40;;;;;;;12.13;8.17;;;9.50;99.90;;;;;;5414647;26;20550;-77
2024/04/24 15:43:28;;;;;;;10.87;8.37;;;9.60;99.90;;;;;;5417121;26;20526;-76
2024/04/24 15:46:15;;;;;;;11.73;8.47;;;9.60;99.90;;;;;;5416444;26;20259;-76
2024/04/24 15:49:03;;;;;;;12.90;7.60;;;9.60;99.90;;;;;;5415496;26;20271;-77
2024/04/24 15:51:51;;;;;;;11.80;8.13;;;9.70;99.90;;;;;;5388632;26;20251;-78
2024/04/24 15:54:38;;;;;;;10.97;7.53;;;9.70;99.90;;;;;;5390606;26;20221;-77
2024/04/24 15:57:27;;;;;;;9.93;7.03;;;9.70;99.90;;;;;;5414369;26;20619;-77
2024/04/24 16:00:15;;;;;;;9.07;6.63;;;9.40;99.90;;;;;;5391354;26;20631;-77
2024/04/24 16:03:02;;;;;;;9.63;7.17;;;9.40;99.90;;;;;;5415374;26;20212;-73
2024/04/24 16:05:50;;;;;;;10.10;6.20;;;9.40;99.90;;;;;;5413818;26;20274;-73
2024/04/24 16:08:37;;;;;;;9.03;6.30;;;9.30;99.90;;;;;;5414166;26;20216;-73
2024/04/24 16:11:25;;;;;;;8.60;5.93;;;9.20;99.90;;;;;;5447892;26;20211;-74
2024/04/24 16:14:13;;;;;;;8.43;6.43;;;9.10;99.90;;;;;;5448847;26;20324;-74
2024/04/24 16:17:05;;;;;;;7.83;6.00;;;9.10;99.90;;;;;;5423831;26;20235;-74
2024/04/24 16:19:53;;;;;;;9.73;5.93;;;9.00;99.90;;;;;;5437067;26;20715;-74
2024/04/24 16:22:40;;;;;;;9.53;6.13;;;8.90;99.90;;;;;;5448347;26;20260;-73
2024/04/24 16:25:28;;;;;;;8.30;6.23;;;8.90;99.90;;;;;;5416799;26;20220;-74
2024/04/24 16:28:15;;;;;;;12.63;6.20;;;8.90;99.90;;;;;;5449836;26;20216;-73
2024/04/24 16:31:03;;;;;;;8.47;6.40;;;9.00;99.90;;;;;;5440661;26;20687;-74
2024/04/24 16:33:51;;;;;;;8.87;6.27;;;8.90;99.90;;;;;;5450646;26;20211;-74
2024/04/24 16:36:38;;;;;;;8.87;5.80;;;8.90;99.90;;;;;;5419171;26;20224;-73
2024/04/24 16:39:26;;;;;;;9.10;6.20;;;9.00;99.90;;;;;;5449159;26;20562;-73
2024/04/24 16:42:14;;;;;;;8.43;6.13;;;9.00;99.90;;;;;;5450578;26;20215;-74
2024/04/24 16:45:02;;;;;;;8.23;6.07;;;9.00;99.90;;;;;;5388824;26;20291;-73
2024/04/24 16:47:49;;;;;;;9.10;6.47;;;9.10;99.90;;;;;;5416072;26;20850;-74
2024/04/24 16:50:37;;;;;;;8.57;6.47;;;9.10;99.90;;;;;;5416445;26;20231;-73
2024/04/24 16:53:25;;;;;;;9.60;6.50;;;9.10;99.90;;;;;;5389493;26;20700;-76
2024/04/24 16:56:16;;;;;;;8.07;5.97;;;8.90;99.90;;;;;;5414587;26;20562;-76
2024/04/24 16:59:04;;;;;;;8.47;6.30;;;8.80;99.90;;;;;;5392121;26;20216;-77
2024/04/24 17:01:52;;;;;;;9.90;6.67;;;8.70;99.90;;;;;;5391038;26;20325;-76
2024/04/24 17:04:39;;;;;;;8.33;6.53;;;8.70;99.90;;;;;;5417779;26;20232;-76
2024/04/24 17:07:27;;;;;;;8.90;6.57;;;8.60;99.90;;;;;;5418798;26;20228;-74
2024/04/24 17:10:14;;;;;;;10.03;7.03;;;8.60;99.90;;;;;;5417512;26;20593;-73
2024/04/24 17:13:02;;;;;;;33.30;17.83;;;8.60;99.90;;;;;;5417292;26;20683;-76
2024/04/24 17:15:50;;;;;;;13.43;8.90;;;8.60;99.90;;;;;;5416677;26;20220;-74
2024/04/24 17:18:37;;;;;;;9.60;6.60;;;8.60;99.90;;;;;;5415781;26;20355;-74
2024/04/24 17:21:25;;;;;;;8.80;6.27;;;8.60;99.90;;;;;;5392757;26;20224;-75
2024/04/24 17:27:06;;;;;;;9.30;6.20;;;8.50;99.90;;;;;;5417824;26;20268;-75
2024/04/24 17:29:53;;;;;;;8.30;6.17;;;8.50;99.90;;;;;;5415316;26;20621;-75
2024/04/24 17:32:44;;;;;;;9.57;6.20;;;8.50;99.90;;;;;;5417442;26;20212;-76
2024/04/24 17:35:32;;;;;;;8.13;5.97;;;8.50;99.90;;;;;;5418044;26;20273;-75
2024/04/24 17:38:19;;;;;;;9.00;5.70;;;8.50;99.90;;;;;;5419768;26;20234;-75
2024/04/24 17:41:10;;;;;;;10.87;6.23;;;8.50;99.90;;;;;;5450975;26;20261;-75
2024/04/24 17:43:57;;;;;;;7.97;5.90;;;8.60;99.90;;;;;;5425146;26;20648;-75
2024/04/24 17:46:46;;;;;;;7.53;5.70;;;8.50;99.90;;;;;;5427796;26;20259;-74
2024/04/24 17:49:34;;;;;;;8.77;6.20;;;8.40;99.90;;;;;;5428042;26;20227;-76
2024/04/24 17:52:22;;;;;;;9.17;6.03;;;8.30;99.90;;;;;;5450976;26;20215;-74
2024/04/24 17:55:10;;;;;;;8.77;5.90;;;8.40;99.90;;;;;;5452882;26;20794;-75
2024/04/24 17:57:58;;;;;;;8.40;5.83;;;8.50;99.90;;;;;;5453015;26;20345;-75
2024/04/24 18:00:46;;;;;;;7.90;6.00;;;8.50;99.90;;;;;;5426628;26;20231;-75
2024/04/24 18:03:39;;;;;;;7.90;5.90;;;8.40;99.90;;;;;;5428800;26;20227;-75
2024/04/24 18:06:26;;;;;;;8.23;6.10;;;8.50;99.90;;;;;;5426865;26;20261;-76
2024/04/24 18:09:14;;;;;;;8.33;5.97;;;8.50;99.90;;;;;;5452862;26;20749;-76
2024/04/24 18:12:02;;;;;;;8.90;6.72;;;8.50;99.90;;;;;;5450802;26;20397;-74
2024/04/24 18:14:50;;;;;;;9.00;6.33;;;8.50;99.90;;;;;;5451586;26;20254;-74
2024/04/24 18:17:37;;;;;;;10.27;6.20;;;8.50;99.90;;;;;;5451537;26;20218;-74
2024/04/24 18:20:25;;;;;;;8.73;6.33;;;8.50;99.90;;;;;;5451595;26;20287;-74
2024/04/24 18:23:13;;;;;;;8.40;6.10;;;8.60;99.90;;;;;;5427741;26;20320;-74
2024/04/24 18:26:00;;;;;;;9.10;6.50;;;8.60;99.90;;;;;;5450796;26;20312;-75
2024/04/24 18:28:48;;;;;;;9.17;6.67;;;8.60;99.90;;;;;;5453511;26;20702;-74
2024/04/24 18:31:35;;;;;;;11.13;6.70;;;8.60;99.90;;;;;;5425699;26;20316;-74
2024/04/24 18:34:23;;;;;;;10.67;6.87;;;8.60;99.90;;;;;;5451392;26;20271;-74
2024/04/24 18:37:11;;;;;;;10.43;6.60;;;8.60;99.90;;;;;;5453406;26;20219;-75
2024/04/24 18:39:59;;;;;;;9.97;6.53;;;8.50;99.90;;;;;;5452308;26;20295;-74
2024/04/24 18:42:50;;;;;;;9.17;6.00;;;8.50;99.90;;;;;;5424612;26;20711;-75
2024/04/24 18:45:38;;;;;;;8.80;6.40;;;8.50;99.90;;;;;;5452438;26;20318;-74
2024/04/24 18:48:28;;;;;;;9.17;6.50;;;8.50;99.90;;;;;;5453795;26;20698;-74
2024/04/24 18:51:16;;;;;;;9.53;6.33;;;8.50;99.90;;;;;;5451063;26;20606;-74
2024/04/24 18:54:05;;;;;;;9.23;6.63;;;8.50;99.90;;;;;;5425187;26;20215;-74
2024/04/24 18:56:53;;;;;;;9.97;6.77;;;8.40;99.90;;;;;;5450352;26;20215;-75
2024/04/24 18:59:40;;;;;;;9.10;6.67;;;8.40;99.90;;;;;;5453283;26;20917;-74
2024/04/24 19:02:27;;;;;;;9.87;7.10;;;8.40;99.90;;;;;;5450410;26;20222;-74
2024/04/24 19:05:16;;;;;;;11.40;7.03;;;8.40;99.90;;;;;;5425834;26;20290;-74
2024/04/24 19:08:04;;;;;;;10.00;7.33;;;8.40;99.90;;;;;;5426217;26;20239;-74
2024/04/24 19:10:54;;;;;;;9.87;7.47;;;8.40;99.90;;;;;;5451917;26;20257;-75
2024/04/24 19:13:42;;;;;;;11.10;7.70;;;8.40;99.90;;;;;;5423626;26;20218;-74
2024/04/24 19:16:35;;;;;;;11.57;7.47;;;8.40;99.90;;;;;;5425944;26;20286;-74
2024/04/24 19:19:23;;;;;;;12.20;7.83;;;8.40;99.90;;;;;;5426358;26;20246;-74
2024/04/24 19:22:11;;;;;;;10.23;7.67;;;8.40;99.90;;;;;;5426766;26;20215;-73
2024/04/24 19:24:59;;;;;;;10.87;7.70;;;8.40;99.90;;;;;;5426963;26;20981;-74
2024/04/24 19:27:47;;;;;;;11.57;7.37;;;8.40;99.90;;;;;;5451855;26;20215;-74
2024/04/24 19:30:35;;;;;;;11.57;7.40;;;8.40;99.90;;;;;;5451687;26;20223;-76
2024/04/24 19:33:24;;;;;;;10.17;7.03;;;8.30;99.90;;;;;;5425674;26;20215;-75
2024/04/24 19:36:11;;;;;;;10.20;7.43;;;8.40;99.90;;;;;;5452856;26;20223;-81
2024/04/24 19:39:00;;;;;;;376.07;201.53;;;8.40;99.90;;;;;;5427191;26;20575;-82
2024/04/24 19:41:47;;;;;;;17.47;10.90;;;8.40;99.90;;;;;;5424815;26;20315;-78
2024/04/24 19:44:35;;;;;;;11.93;8.37;;;8.40;99.90;;;;;;5451595;26;20254;-78
2024/04/24 19:47:23;;;;;;;12.07;8.37;;;8.30;99.90;;;;;;5450721;26;20759;-76
2024/04/24 19:50:10;;;;;;;13.37;8.47;;;8.30;99.90;;;;;;5450386;26;20302;-79
2024/04/24 19:52:58;;;;;;;11.00;8.20;;;8.40;99.90;;;;;;5425278;26;20282;-78
2024/04/24 19:55:47;;;;;;;12.50;8.23;;;8.40;99.90;;;;;;5426448;26;20218;-88
2024/04/24 19:58:35;;;;;;;11.10;7.50;;;8.30;99.90;;;;;;5423240;26;20532;-77
2024/04/24 20:01:22;;;;;;;11.53;7.50;;;8.30;99.90;;;;;;5452534;26;20265;-77
2024/04/24 20:04:10;;;;;;;10.97;7.87;;;8.40;99.90;;;;;;5451476;26;20319;-78
2024/04/24 20:06:57;;;;;;;10.17;7.17;;;8.40;99.90;;;;;;5422535;26;20611;-77
2024/04/24 20:09:45;;;;;;;13.80;7.60;;;8.40;99.90;;;;;;5425345;26;20215;-78
2024/04/24 20:12:35;;;;;;;8.53;6.30;;;8.40;99.90;;;;;;5452506;26;20295;-78
2024/04/24 20:15:23;;;;;;;8.87;6.47;;;8.30;99.90;;;;;;5451444;26;20218;-77
2024/04/24 20:18:10;;;;;;;11.00;6.63;;;8.30;99.90;;;;;;5450890;26;20608;-78
2024/04/24 20:20:59;;;;;;;8.83;6.00;;;8.20;99.90;;;;;;5451519;26;20335;-82
2024/04/24 20:23:50;;;;;;;79.10;43.57;;;8.20;99.90;;;;;;5449968;26;20215;-86